Edwards, Illinois
Current Conditions -  °F | °C
As of 4:54 AM on Wednesday 26 Nov 2014 (Local Time) from KPIA Reporting Station
Clear Clear  
Wind Chill: 24°   Ceiling: Unl
Heat Index: 24°   Visibility: 7mi
Dew Point: 19°   Wind: 3mph
Humidity: 81%   Direction: 110°ESE
Pressure: 30.1"   Gusts: NA
Location:  40.75°N, 89.74°W
Report Text: KPIA 261054Z 11003KT 7SM CLR M04/M07 A3010 RMK AO2 SLP203 T10441072
Loading
Personal Weather Stations






























Interactive Weather Map New forecast layout! Learn more

10-Day Weather Forecast

Advertisements
Track Severe Weather on mobile